sensor_id;sensor_type;location;lat;lon;timestamp;P1;durP1;ratioP1;P2;durP2;ratioP2
20857;SDS011;10589;53.636;10.012;2024-02-26T04:46:13;34.80;;;18.83;;
20857;SDS011;10589;53.636;10.012;2024-02-26T04:48:40;34.07;;;19.20;;
20857;SDS011;10589;53.636;10.012;2024-02-26T04:51:07;30.73;;;18.10;;
20857;SDS011;10589;53.636;10.012;2024-02-26T04:53:32;35.43;;;19.57;;
20857;SDS011;10589;53.636;10.012;2024-02-26T04:55:58;33.67;;;19.40;;
20857;SDS011;10589;53.636;10.012;2024-02-26T04:58:24;36.70;;;19.50;;
20857;SDS011;10589;53.636;10.012;2024-02-26T05:00:49;31.80;;;19.27;;
20857;SDS011;10589;53.636;10.012;2024-02-26T05:03:15;32.00;;;19.07;;
20857;SDS011;10589;53.636;10.012;2024-02-26T05:05:42;31.70;;;19.00;;
20857;SDS011;10589;53.636;10.012;2024-02-26T05:08:08;33.67;;;17.87;;
20857;SDS011;10589;53.636;10.012;2024-02-26T05:10:34;35.00;;;18.57;;
20857;SDS011;10589;53.636;10.012;2024-02-26T05:13:04;32.27;;;17.63;;
20857;SDS011;10589;53.636;10.012;2024-02-26T05:15:30;29.97;;;18.53;;
20857;SDS011;10589;53.636;10.012;2024-02-26T05:17:55;30.43;;;18.00;;
20857;SDS011;10589;53.636;10.012;2024-02-26T05:20:21;28.37;;;17.80;;
20857;SDS011;10589;53.636;10.012;2024-02-26T05:22:46;28.87;;;17.43;;
20857;SDS011;10589;53.636;10.012;2024-02-26T05:25:14;32.00;;;19.10;;
20857;SDS011;10589;53.636;10.012;2024-02-26T05:27:40;29.70;;;17.77;;
20857;SDS011;10589;53.636;10.012;2024-02-26T05:30:06;33.03;;;17.90;;
20857;SDS011;10589;53.636;10.012;2024-02-26T05:32:32;35.17;;;19.70;;
20857;SDS011;10589;53.636;10.012;2024-02-26T05:34:58;35.50;;;19.57;;
20857;SDS011;10589;53.636;10.012;2024-02-26T05:37:23;42.70;;;20.73;;
20857;SDS011;10589;53.636;10.012;2024-02-26T05:39:49;34.67;;;20.93;;
20857;SDS011;10589;53.636;10.012;2024-02-26T05:42:15;35.50;;;20.10;;
20857;SDS011;10589;53.636;10.012;2024-02-26T05:44:40;34.23;;;19.30;;
20857;SDS011;10589;53.636;10.012;2024-02-26T05:47:06;39.13;;;19.60;;
20857;SDS011;10589;53.636;10.012;2024-02-26T05:49:31;31.20;;;18.20;;
20857;SDS011;10589;53.636;10.012;2024-02-26T05:51:58;36.23;;;18.97;;
20857;SDS011;10589;53.636;10.012;2024-02-26T05:54:24;31.30;;;17.47;;
20857;SDS011;10589;53.636;10.012;2024-02-26T05:56:49;40.40;;;18.97;;
20857;SDS011;10589;53.636;10.012;2024-02-26T05:59:15;35.37;;;18.23;;
20857;SDS011;10589;53.636;10.012;2024-02-26T06:01:41;35.47;;;18.00;;
20857;SDS011;10589;53.636;10.012;2024-02-26T06:04:06;32.60;;;18.17;;
20857;SDS011;10589;53.636;10.012;2024-02-26T06:06:32;34.90;;;20.20;;
20857;SDS011;10589;53.636;10.012;2024-02-26T06:08:57;28.87;;;17.43;;
20857;SDS011;10589;53.636;10.012;2024-02-26T06:11:23;34.73;;;19.70;;
20857;SDS011;10589;53.636;10.012;2024-02-26T06:13:49;38.07;;;20.27;;
20857;SDS011;10589;53.636;10.012;2024-02-26T06:16:14;35.23;;;19.23;;
20857;SDS011;10589;53.636;10.012;2024-02-26T06:18:40;33.77;;;18.17;;
20857;SDS011;10589;53.636;10.012;2024-02-26T06:21:08;33.80;;;18.83;;
20857;SDS011;10589;53.636;10.012;2024-02-26T06:23:35;38.67;;;20.90;;
20857;SDS011;10589;53.636;10.012;2024-02-26T06:26:01;40.83;;;21.07;;
20857;SDS011;10589;53.636;10.012;2024-02-26T06:28:26;39.90;;;21.17;;
20857;SDS011;10589;53.636;10.012;2024-02-26T06:30:55;36.43;;;20.90;;
20857;SDS011;10589;53.636;10.012;2024-02-26T06:33:21;41.60;;;20.90;;
20857;SDS011;10589;53.636;10.012;2024-02-26T06:35:46;41.87;;;20.07;;
20857;SDS011;10589;53.636;10.012;2024-02-26T06:38:12;40.83;;;21.10;;
20857;SDS011;10589;53.636;10.012;2024-02-26T06:40:38;35.40;;;19.97;;
20857;SDS011;10589;53.636;10.012;2024-02-26T06:43:04;44.07;;;22.47;;
20857;SDS011;10589;53.636;10.012;2024-02-26T06:45:31;44.57;;;21.17;;
20857;SDS011;10589;53.636;10.012;2024-02-26T06:47:56;41.30;;;24.70;;
20857;SDS011;10589;53.636;10.012;2024-02-26T06:50:22;42.13;;;21.27;;
20857;SDS011;10589;53.636;10.012;2024-02-26T06:52:47;37.77;;;19.77;;
20857;SDS011;10589;53.636;10.012;2024-02-26T06:55:13;48.73;;;22.60;;
20857;SDS011;10589;53.636;10.012;2024-02-26T06:57:39;38.90;;;20.53;;
20857;SDS011;10589;53.636;10.012;2024-02-26T07:00:04;41.90;;;21.00;;
20857;SDS011;10589;53.636;10.012;2024-02-26T07:02:30;40.63;;;21.10;;
20857;SDS011;10589;53.636;10.012;2024-02-26T07:04:56;43.00;;;22.67;;
20857;SDS011;10589;53.636;10.012;2024-02-26T07:07:23;45.63;;;21.40;;
20857;SDS011;10589;53.636;10.012;2024-02-26T07:09:49;55.87;;;24.03;;
20857;SDS011;10589;53.636;10.012;2024-02-26T07:12:15;53.50;;;24.03;;
20857;SDS011;10589;53.636;10.012;2024-02-26T07:14:41;44.63;;;22.03;;
20857;SDS011;10589;53.636;10.012;2024-02-26T07:17:07;52.83;;;24.03;;
20857;SDS011;10589;53.636;10.012;2024-02-26T07:19:33;55.70;;;22.83;;
20857;SDS011;10589;53.636;10.012;2024-02-26T07:21:59;51.87;;;23.87;;
20857;SDS011;10589;53.636;10.012;2024-02-26T07:24:26;49.93;;;23.70;;
20857;SDS011;10589;53.636;10.012;2024-02-26T07:26:53;54.47;;;25.23;;
20857;SDS011;10589;53.636;10.012;2024-02-26T07:29:20;56.33;;;23.77;;
20857;SDS011;10589;53.636;10.012;2024-02-26T07:31:46;56.80;;;24.27;;
20857;SDS011;10589;53.636;10.012;2024-02-26T07:34:12;54.30;;;24.23;;
20857;SDS011;10589;53.636;10.012;2024-02-26T07:36:38;56.87;;;25.10;;
20857;SDS011;10589;53.636;10.012;2024-02-26T07:39:03;56.13;;;24.70;;
20857;SDS011;10589;53.636;10.012;2024-02-26T07:41:30;60.50;;;25.83;;
20857;SDS011;10589;53.636;10.012;2024-02-26T07:43:55;64.23;;;26.27;;
20857;SDS011;10589;53.636;10.012;2024-02-26T07:46:21;63.90;;;26.30;;
20857;SDS011;10589;53.636;10.012;2024-02-26T07:48:47;72.33;;;26.97;;
20857;SDS011;10589;53.636;10.012;2024-02-26T07:51:12;65.83;;;25.90;;
20857;SDS011;10589;53.636;10.012;2024-02-26T07:53:39;81.33;;;27.50;;
20857;SDS011;10589;53.636;10.012;2024-02-26T07:56:05;64.93;;;26.03;;
20857;SDS011;10589;53.636;10.012;2024-02-26T07:58:32;72.80;;;26.73;;
20857;SDS011;10589;53.636;10.012;2024-02-26T08:00:58;70.47;;;26.17;;
20857;SDS011;10589;53.636;10.012;2024-02-26T08:03:24;71.67;;;26.33;;
20857;SDS011;10589;53.636;10.012;2024-02-26T08:05:51;71.07;;;25.73;;
20857;SDS011;10589;53.636;10.012;2024-02-26T08:08:16;79.47;;;26.97;;
20857;SDS011;10589;53.636;10.012;2024-02-26T08:10:42;72.30;;;26.27;;
20857;SDS011;10589;53.636;10.012;2024-02-26T08:13:08;104.93;;;28.90;;
20857;SDS011;10589;53.636;10.012;2024-02-26T08:15:34;80.63;;;28.17;;
20857;SDS011;10589;53.636;10.012;2024-02-26T08:18:00;119.97;;;30.60;;
20857;SDS011;10589;53.636;10.012;2024-02-26T08:20:29;157.83;;;32.40;;
20857;SDS011;10589;53.636;10.012;2024-02-26T08:22:56;82.00;;;26.40;;
20857;SDS011;10589;53.636;10.012;2024-02-26T08:25:22;133.63;;;31.63;;
20857;SDS011;10589;53.636;10.012;2024-02-26T08:27:48;87.17;;;28.97;;
20857;SDS011;10589;53.636;10.012;2024-02-26T08:30:14;71.23;;;27.53;;
20857;SDS011;10589;53.636;10.012;2024-02-26T08:32:50;75.27;;;27.87;;
20857;SDS011;10589;53.636;10.012;2024-02-26T08:35:17;72.53;;;27.87;;
20857;SDS011;10589;53.636;10.012;2024-02-26T08:37:46;84.00;;;27.63;;
20857;SDS011;10589;53.636;10.012;2024-02-26T08:40:12;96.93;;;27.23;;
20857;SDS011;10589;53.636;10.012;2024-02-26T08:42:39;91.87;;;28.67;;
20857;SDS011;10589;53.636;10.012;2024-02-26T08:45:05;91.40;;;28.13;;
20857;SDS011;10589;53.636;10.012;2024-02-26T08:47:32;75.97;;;27.93;;
20857;SDS011;10589;53.636;10.012;2024-02-26T08:49:57;79.47;;;27.33;;
20857;SDS011;10589;53.636;10.012;2024-02-26T08:52:23;76.97;;;28.30;;
20857;SDS011;10589;53.636;10.012;2024-02-26T08:54:49;80.43;;;27.13;;
20857;SDS011;10589;53.636;10.012;2024-02-26T08:57:14;75.83;;;26.83;;
20857;SDS011;10589;53.636;10.012;2024-02-26T08:59:40;73.13;;;28.10;;
20857;SDS011;10589;53.636;10.012;2024-02-26T09:02:07;69.50;;;28.00;;
20857;SDS011;10589;53.636;10.012;2024-02-26T09:04:34;65.63;;;27.03;;
20857;SDS011;10589;53.636;10.012;2024-02-26T09:07:00;61.50;;;25.53;;
20857;SDS011;10589;53.636;10.012;2024-02-26T09:09:27;63.90;;;25.33;;
20857;SDS011;10589;53.636;10.012;2024-02-26T09:11:52;64.07;;;25.83;;
20857;SDS011;10589;53.636;10.012;2024-02-26T09:14:19;69.70;;;26.93;;
20857;SDS011;10589;53.636;10.012;2024-02-26T09:16:45;63.93;;;27.47;;
20857;SDS011;10589;53.636;10.012;2024-02-26T09:19:13;63.30;;;25.20;;
20857;SDS011;10589;53.636;10.012;2024-02-26T09:21:46;68.13;;;26.97;;
20857;SDS011;10589;53.636;10.012;2024-02-26T09:24:12;67.93;;;27.30;;
20857;SDS011;10589;53.636;10.012;2024-02-26T09:26:38;63.23;;;26.30;;
20857;SDS011;10589;53.636;10.012;2024-02-26T09:29:03;66.03;;;28.07;;
20857;SDS011;10589;53.636;10.012;2024-02-26T09:31:30;62.80;;;27.00;;
20857;SDS011;10589;53.636;10.012;2024-02-26T09:33:55;57.87;;;25.53;;
20857;SDS011;10589;53.636;10.012;2024-02-26T09:36:21;60.97;;;26.30;;
20857;SDS011;10589;53.636;10.012;2024-02-26T09:38:47;58.97;;;26.37;;
20857;SDS011;10589;53.636;10.012;2024-02-26T09:41:16;62.30;;;24.87;;
20857;SDS011;10589;53.636;10.012;2024-02-26T09:43:43;59.67;;;24.60;;
20857;SDS011;10589;53.636;10.012;2024-02-26T09:46:11;66.93;;;25.30;;
20857;SDS011;10589;53.636;10.012;2024-02-26T09:48:37;59.87;;;24.80;;
20857;SDS011;10589;53.636;10.012;2024-02-26T09:51:03;63.47;;;24.63;;
20857;SDS011;10589;53.636;10.012;2024-02-26T09:53:29;57.30;;;23.77;;
20857;SDS011;10589;53.636;10.012;2024-02-26T09:56:00;59.83;;;24.27;;
20857;SDS011;10589;53.636;10.012;2024-02-26T09:58:26;67.57;;;25.00;;
20857;SDS011;10589;53.636;10.012;2024-02-26T10:00:56;59.03;;;23.83;;
20857;SDS011;10589;53.636;10.012;2024-02-26T10:03:27;66.23;;;25.70;;
20857;SDS011;10589;53.636;10.012;2024-02-26T10:05:56;59.23;;;24.10;;
20857;SDS011;10589;53.636;10.012;2024-02-26T10:08:23;59.43;;;23.43;;
20857;SDS011;10589;53.636;10.012;2024-02-26T10:10:49;63.70;;;25.17;;
20857;SDS011;10589;53.636;10.012;2024-02-26T10:13:15;63.40;;;24.87;;
20857;SDS011;10589;53.636;10.012;2024-02-26T10:15:41;59.53;;;24.97;;
20857;SDS011;10589;53.636;10.012;2024-02-26T10:18:07;62.20;;;24.70;;
20857;SDS011;10589;53.636;10.012;2024-02-26T10:20:32;60.33;;;24.00;;
20857;SDS011;10589;53.636;10.012;2024-02-26T10:23:03;54.60;;;23.47;;
20857;SDS011;10589;53.636;10.012;2024-02-26T10:25:29;59.63;;;23.67;;
20857;SDS011;10589;53.636;10.012;2024-02-26T10:27:58;50.53;;;23.00;;
20857;SDS011;10589;53.636;10.012;2024-02-26T10:30:27;52.57;;;23.20;;
20857;SDS011;10589;53.636;10.012;2024-02-26T10:32:55;54.40;;;23.43;;
20857;SDS011;10589;53.636;10.012;2024-02-26T10:35:21;50.73;;;22.80;;
20857;SDS011;10589;53.636;10.012;2024-02-26T10:37:47;49.57;;;22.57;;
20857;SDS011;10589;53.636;10.012;2024-02-26T10:40:14;49.37;;;22.50;;
20857;SDS011;10589;53.636;10.012;2024-02-26T10:42:41;47.50;;;22.33;;
20857;SDS011;10589;53.636;10.012;2024-02-26T10:45:07;44.93;;;22.27;;
20857;SDS011;10589;53.636;10.012;2024-02-26T10:47:34;45.17;;;21.77;;
20857;SDS011;10589;53.636;10.012;2024-02-26T10:50:03;43.97;;;21.13;;
20857;SDS011;10589;53.636;10.012;2024-02-26T10:52:34;42.83;;;21.97;;
20857;SDS011;10589;53.636;10.012;2024-02-26T10:55:02;46.17;;;22.57;;
20857;SDS011;10589;53.636;10.012;2024-02-26T10:57:33;41.97;;;21.13;;
20857;SDS011;10589;53.636;10.012;2024-02-26T11:00:07;41.83;;;21.23;;
20857;SDS011;10589;53.636;10.012;2024-02-26T11:02:37;46.67;;;22.17;;
20857;SDS011;10589;53.636;10.012;2024-02-26T11:05:05;38.53;;;20.97;;
20857;SDS011;10589;53.636;10.012;2024-02-26T11:07:32;36.30;;;19.57;;
20857;SDS011;10589;53.636;10.012;2024-02-26T11:10:00;36.53;;;20.13;;
20857;SDS011;10589;53.636;10.012;2024-02-26T11:12:31;34.70;;;20.20;;
20857;SDS011;10589;53.636;10.012;2024-02-26T11:14:58;30.97;;;18.63;;
20857;SDS011;10589;53.636;10.012;2024-02-26T11:17:26;32.00;;;19.23;;
20857;SDS011;10589;53.636;10.012;2024-02-26T11:19:56;31.67;;;18.87;;
20857;SDS011;10589;53.636;10.012;2024-02-26T11:22:23;28.77;;;17.93;;
20857;SDS011;10589;53.636;10.012;2024-02-26T11:24:53;30.47;;;17.70;;
20857;SDS011;10589;53.636;10.012;2024-02-26T11:27:23;27.10;;;17.73;;
20857;SDS011;10589;53.636;10.012;2024-02-26T11:29:55;26.33;;;17.00;;
20857;SDS011;10589;53.636;10.012;2024-02-26T11:32:24;23.00;;;15.57;;
20857;SDS011;10589;53.636;10.012;2024-02-26T11:34:52;22.40;;;15.47;;
20857;SDS011;10589;53.636;10.012;2024-02-26T11:37:19;19.80;;;13.67;;
20857;SDS011;10589;53.636;10.012;2024-02-26T11:39:45;20.90;;;13.87;;
20857;SDS011;10589;53.636;10.012;2024-02-26T11:42:14;19.80;;;13.97;;
20857;SDS011;10589;53.636;10.012;2024-02-26T11:44:41;20.60;;;13.50;;
20857;SDS011;10589;53.636;10.012;2024-02-26T11:47:13;21.47;;;14.93;;
20857;SDS011;10589;53.636;10.012;2024-02-26T11:49:44;21.93;;;13.90;;
20857;SDS011;10589;53.636;10.012;2024-02-26T11:52:09;19.47;;;12.70;;
20857;SDS011;10589;53.636;10.012;2024-02-26T11:54:52;18.67;;;13.50;;
20857;SDS011;10589;53.636;10.012;2024-02-26T11:59:55;17.87;;;13.03;;
20857;SDS011;10589;53.636;10.012;2024-02-26T12:05:11;20.60;;;13.73;;
20857;SDS011;10589;53.636;10.012;2024-02-26T12:07:48;17.50;;;13.07;;
20857;SDS011;10589;53.636;10.012;2024-02-26T12:12:55;19.40;;;14.63;;
20857;SDS011;10589;53.636;10.012;2024-02-26T12:15:30;19.83;;;14.53;;
20857;SDS011;10589;53.636;10.012;2024-02-26T12:17:57;21.77;;;15.00;;
20857;SDS011;10589;53.636;10.012;2024-02-26T12:20:24;23.47;;;16.27;;
20857;SDS011;10589;53.636;10.012;2024-02-26T12:22:50;24.17;;;16.50;;
20857;SDS011;10589;53.636;10.012;2024-02-26T12:25:17;21.67;;;15.60;;
20857;SDS011;10589;53.636;10.012;2024-02-26T12:27:46;23.53;;;15.17;;
20857;SDS011;10589;53.636;10.012;2024-02-26T12:30:12;22.10;;;15.13;;
20857;SDS011;10589;53.636;10.012;2024-02-26T12:32:38;20.00;;;13.83;;
20857;SDS011;10589;53.636;10.012;2024-02-26T12:35:05;19.63;;;13.40;;
20857;SDS011;10589;53.636;10.012;2024-02-26T12:37:31;22.53;;;14.10;;
20857;SDS011;10589;53.636;10.012;2024-02-26T12:39:57;19.73;;;13.90;;
20857;SDS011;10589;53.636;10.012;2024-02-26T12:42:23;19.27;;;13.73;;
20857;SDS011;10589;53.636;10.012;2024-02-26T12:44:49;18.27;;;13.03;;
20857;SDS011;10589;53.636;10.012;2024-02-26T12:47:16;18.20;;;13.47;;
20857;SDS011;10589;53.636;10.012;2024-02-26T12:49:43;18.67;;;13.73;;
20857;SDS011;10589;53.636;10.012;2024-02-26T12:52:12;18.27;;;12.90;;
20857;SDS011;10589;53.636;10.012;2024-02-26T12:54:38;19.17;;;12.33;;
20857;SDS011;10589;53.636;10.012;2024-02-26T12:57:05;19.43;;;12.83;;
20857;SDS011;10589;53.636;10.012;2024-02-26T12:59:33;21.27;;;14.47;;
20857;SDS011;10589;53.636;10.012;2024-02-26T13:02:00;22.03;;;14.30;;
20857;SDS011;10589;53.636;10.012;2024-02-26T13:04:28;22.50;;;15.33;;
20857;SDS011;10589;53.636;10.012;2024-02-26T13:06:55;20.33;;;13.67;;
20857;SDS011;10589;53.636;10.012;2024-02-26T13:09:25;21.97;;;15.80;;
20857;SDS011;10589;53.636;10.012;2024-02-26T13:11:55;22.63;;;14.73;;
20857;SDS011;10589;53.636;10.012;2024-02-26T13:14:21;21.03;;;13.73;;
20857;SDS011;10589;53.636;10.012;2024-02-26T13:17:05;19.60;;;13.00;;
20857;SDS011;10589;53.636;10.012;2024-02-26T13:19:30;17.93;;;13.23;;
20857;SDS011;10589;53.636;10.012;2024-02-26T13:22:02;18.60;;;13.03;;
20857;SDS011;10589;53.636;10.012;2024-02-26T13:24:35;19.23;;;12.70;;
20857;SDS011;10589;53.636;10.012;2024-02-26T13:27:01;18.63;;;12.10;;
20857;SDS011;10589;53.636;10.012;2024-02-26T13:29:30;19.03;;;12.63;;
20857;SDS011;10589;53.636;10.012;2024-02-26T13:31:57;17.77;;;12.47;;
20857;SDS011;10589;53.636;10.012;2024-02-26T13:34:26;20.20;;;13.37;;
20857;SDS011;10589;53.636;10.012;2024-02-26T13:36:55;18.47;;;13.13;;
20857;SDS011;10589;53.636;10.012;2024-02-26T13:39:22;20.33;;;13.47;;
20857;SDS011;10589;53.636;10.012;2024-02-26T13:41:51;17.93;;;13.10;;
20857;SDS011;10589;53.636;10.012;2024-02-26T13:44:18;18.37;;;11.97;;
20857;SDS011;10589;53.636;10.012;2024-02-26T13:46:45;18.70;;;13.10;;
20857;SDS011;10589;53.636;10.012;2024-02-26T13:49:10;20.53;;;13.97;;
20857;SDS011;10589;53.636;10.012;2024-02-26T13:51:36;18.57;;;12.90;;
20857;SDS011;10589;53.636;10.012;2024-02-26T13:54:03;18.10;;;13.30;;
20857;SDS011;10589;53.636;10.012;2024-02-26T13:56:29;19.00;;;13.33;;
20857;SDS011;10589;53.636;10.012;2024-02-26T13:58:55;20.60;;;13.70;;
20857;SDS011;10589;53.636;10.012;2024-02-26T14:01:20;16.70;;;12.90;;
20857;SDS011;10589;53.636;10.012;2024-02-26T14:03:46;17.90;;;12.80;;
20857;SDS011;10589;53.636;10.012;2024-02-26T14:06:12;15.87;;;12.30;;
20857;SDS011;10589;53.636;10.012;2024-02-26T14:08:37;16.83;;;12.77;;
20857;SDS011;10589;53.636;10.012;2024-02-26T14:11:03;18.93;;;12.63;;
20857;SDS011;10589;53.636;10.012;2024-02-26T14:13:29;16.23;;;12.17;;
20857;SDS011;10589;53.636;10.012;2024-02-26T14:15:54;16.80;;;12.33;;
20857;SDS011;10589;53.636;10.012;2024-02-26T14:18:20;16.10;;;12.50;;
20857;SDS011;10589;53.636;10.012;2024-02-26T14:20:45;15.27;;;11.30;;
20857;SDS011;10589;53.636;10.012;2024-02-26T14:23:11;15.10;;;11.17;;
20857;SDS011;10589;53.636;10.012;2024-02-26T14:25:37;15.43;;;11.80;;
20857;SDS011;10589;53.636;10.012;2024-02-26T14:28:02;18.80;;;13.33;;
20857;SDS011;10589;53.636;10.012;2024-02-26T14:30:28;16.83;;;12.80;;
20857;SDS011;10589;53.636;10.012;2024-02-26T14:32:54;17.27;;;12.23;;
20857;SDS011;10589;53.636;10.012;2024-02-26T14:35:20;18.33;;;11.93;;
20857;SDS011;10589;53.636;10.012;2024-02-26T14:37:46;15.40;;;12.33;;
20857;SDS011;10589;53.636;10.012;2024-02-26T14:40:13;15.33;;;12.13;;
20857;SDS011;10589;53.636;10.012;2024-02-26T14:42:39;18.73;;;13.20;;
20857;SDS011;10589;53.636;10.012;2024-02-26T14:45:05;15.37;;;12.33;;
20857;SDS011;10589;53.636;10.012;2024-02-26T14:47:33;16.37;;;12.60;;
20857;SDS011;10589;53.636;10.012;2024-02-26T14:50:02;18.30;;;13.57;;
20857;SDS011;10589;53.636;10.012;2024-02-26T14:52:29;16.47;;;12.77;;
20857;SDS011;10589;53.636;10.012;2024-02-26T14:54:54;15.97;;;12.47;;
20857;SDS011;10589;53.636;10.012;2024-02-26T14:57:20;14.70;;;12.07;;
20857;SDS011;10589;53.636;10.012;2024-02-26T14:59:46;15.97;;;12.23;;
20857;SDS011;10589;53.636;10.012;2024-02-26T15:02:12;15.83;;;12.30;;
20857;SDS011;10589;53.636;10.012;2024-02-26T15:04:39;17.87;;;13.10;;
20857;SDS011;10589;53.636;10.012;2024-02-26T15:07:04;18.93;;;13.90;;
20857;SDS011;10589;53.636;10.012;2024-02-26T15:09:30;19.53;;;13.30;;
20857;SDS011;10589;53.636;10.012;2024-02-26T15:11:56;17.60;;;13.03;;
20857;SDS011;10589;53.636;10.012;2024-02-26T15:14:22;19.00;;;13.10;;
20857;SDS011;10589;53.636;10.012;2024-02-26T15:16:48;18.07;;;13.57;;
20857;SDS011;10589;53.636;10.012;2024-02-26T15:19:14;18.90;;;13.47;;
20857;SDS011;10589;53.636;10.012;2024-02-26T15:21:43;17.30;;;13.20;;
20857;SDS011;10589;53.636;10.012;2024-02-26T15:24:10;17.93;;;12.43;;
20857;SDS011;10589;53.636;10.012;2024-02-26T15:26:36;17.13;;;12.30;;
20857;SDS011;10589;53.636;10.012;2024-02-26T15:29:02;16.87;;;12.60;;
20857;SDS011;10589;53.636;10.012;2024-02-26T15:31:28;15.60;;;12.10;;
20857;SDS011;10589;53.636;10.012;2024-02-26T15:33:54;18.27;;;13.70;;
20857;SDS011;10589;53.636;10.012;2024-02-26T15:36:19;17.30;;;13.03;;
20857;SDS011;10589;53.636;10.012;2024-02-26T15:38:45;17.70;;;12.17;;
20857;SDS011;10589;53.636;10.012;2024-02-26T15:41:11;18.73;;;12.80;;
20857;SDS011;10589;53.636;10.012;2024-02-26T15:43:37;16.77;;;12.43;;
20857;SDS011;10589;53.636;10.012;2024-02-26T15:46:03;18.17;;;12.93;;
20857;SDS011;10589;53.636;10.012;2024-02-26T15:48:29;18.30;;;12.47;;
20857;SDS011;10589;53.636;10.012;2024-02-26T15:50:55;17.90;;;12.13;;
20857;SDS011;10589;53.636;10.012;2024-02-26T15:53:21;17.57;;;11.83;;
20857;SDS011;10589;53.636;10.012;2024-02-26T15:55:47;16.20;;;11.67;;
20857;SDS011;10589;53.636;10.012;2024-02-26T15:58:12;17.77;;;12.10;;
20857;SDS011;10589;53.636;10.012;2024-02-26T16:00:41;17.97;;;13.13;;
20857;SDS011;10589;53.636;10.012;2024-02-26T16:03:08;16.63;;;12.23;;
20857;SDS011;10589;53.636;10.012;2024-02-26T16:05:34;14.73;;;11.27;;
20857;SDS011;10589;53.636;10.012;2024-02-26T16:08:02;15.10;;;11.70;;
20857;SDS011;10589;53.636;10.012;2024-02-26T16:10:37;20.03;;;13.70;;
20857;SDS011;10589;53.636;10.012;2024-02-26T16:13:04;17.70;;;11.80;;
20857;SDS011;10589;53.636;10.012;2024-02-26T16:15:30;15.97;;;12.53;;
20857;SDS011;10589;53.636;10.012;2024-02-26T16:17:58;15.93;;;12.20;;
20857;SDS011;10589;53.636;10.012;2024-02-26T16:20:25;14.93;;;11.73;;
20857;SDS011;10589;53.636;10.012;2024-02-26T16:22:53;15.93;;;11.13;;
20857;SDS011;10589;53.636;10.012;2024-02-26T16:25:19;15.37;;;11.50;;
20857;SDS011;10589;53.636;10.012;2024-02-26T16:27:45;17.37;;;11.93;;
20857;SDS011;10589;53.636;10.012;2024-02-26T16:30:11;18.33;;;13.20;;
20857;SDS011;10589;53.636;10.012;2024-02-26T16:32:38;17.57;;;12.07;;
20857;SDS011;10589;53.636;10.012;2024-02-26T16:35:05;15.73;;;11.93;;
20857;SDS011;10589;53.636;10.012;2024-02-26T16:37:32;18.57;;;12.80;;
20857;SDS011;10589;53.636;10.012;2024-02-26T16:39:58;18.07;;;12.23;;
20857;SDS011;10589;53.636;10.012;2024-02-26T16:42:25;16.40;;;12.03;;
20857;SDS011;10589;53.636;10.012;2024-02-26T16:44:52;17.40;;;12.17;;
20857;SDS011;10589;53.636;10.012;2024-02-26T16:47:18;14.77;;;10.93;;
20857;SDS011;10589;53.636;10.012;2024-02-26T16:49:44;16.53;;;12.30;;
20857;SDS011;10589;53.636;10.012;2024-02-26T16:52:10;16.50;;;11.90;;
20857;SDS011;10589;53.636;10.012;2024-02-26T16:54:36;17.63;;;12.07;;
20857;SDS011;10589;53.636;10.012;2024-02-26T16:57:02;16.07;;;11.67;;
20857;SDS011;10589;53.636;10.012;2024-02-26T16:59:28;21.13;;;13.20;;
20857;SDS011;10589;53.636;10.012;2024-02-26T17:01:54;17.73;;;12.50;;
20857;SDS011;10589;53.636;10.012;2024-02-26T17:04:21;19.50;;;13.27;;
20857;SDS011;10589;53.636;10.012;2024-02-26T17:06:48;20.17;;;12.60;;
20857;SDS011;10589;53.636;10.012;2024-02-26T17:09:14;18.40;;;13.73;;
20857;SDS011;10589;53.636;10.012;2024-02-26T17:11:40;24.47;;;18.27;;
20857;SDS011;10589;53.636;10.012;2024-02-26T17:14:05;24.70;;;16.27;;
20857;SDS011;10589;53.636;10.012;2024-02-26T17:16:31;21.77;;;14.83;;
20857;SDS011;10589;53.636;10.012;2024-02-26T17:18:57;21.60;;;14.40;;
20857;SDS011;10589;53.636;10.012;2024-02-26T17:21:23;20.67;;;14.83;;
20857;SDS011;10589;53.636;10.012;2024-02-26T17:23:49;22.57;;;15.77;;
20857;SDS011;10589;53.636;10.012;2024-02-26T17:26:19;24.73;;;16.60;;
20857;SDS011;10589;53.636;10.012;2024-02-26T17:28:47;20.80;;;14.73;;
20857;SDS011;10589;53.636;10.012;2024-02-26T17:31:13;33.90;;;23.23;;
20857;SDS011;10589;53.636;10.012;2024-02-26T17:33:43;23.80;;;16.57;;
20857;SDS011;10589;53.636;10.012;2024-02-26T17:36:09;22.40;;;14.93;;
20857;SDS011;10589;53.636;10.012;2024-02-26T17:38:35;24.03;;;15.73;;
20857;SDS011;10589;53.636;10.012;2024-02-26T17:41:01;22.43;;;15.23;;
20857;SDS011;10589;53.636;10.012;2024-02-26T17:43:28;24.40;;;15.80;;
20857;SDS011;10589;53.636;10.012;2024-02-26T17:45:53;19.67;;;13.60;;
20857;SDS011;10589;53.636;10.012;2024-02-26T17:48:19;24.70;;;15.90;;
20857;SDS011;10589;53.636;10.012;2024-02-26T17:50:46;24.17;;;15.33;;
20857;SDS011;10589;53.636;10.012;2024-02-26T17:53:12;20.73;;;13.97;;
20857;SDS011;10589;53.636;10.012;2024-02-26T17:55:42;23.77;;;14.93;;
20857;SDS011;10589;53.636;10.012;2024-02-26T17:58:07;23.77;;;15.67;;
20857;SDS011;10589;53.636;10.012;2024-02-26T18:00:34;22.13;;;14.73;;
20857;SDS011;10589;53.636;10.012;2024-02-26T18:03:02;21.33;;;13.87;;
20857;SDS011;10589;53.636;10.012;2024-02-26T18:05:28;22.63;;;15.33;;
20857;SDS011;10589;53.636;10.012;2024-02-26T18:07:53;22.80;;;15.00;;
20857;SDS011;10589;53.636;10.012;2024-02-26T18:10:19;19.70;;;14.13;;
20857;SDS011;10589;53.636;10.012;2024-02-26T18:12:47;24.20;;;16.13;;
20857;SDS011;10589;53.636;10.012;2024-02-26T18:15:13;25.40;;;15.03;;
20857;SDS011;10589;53.636;10.012;2024-02-26T18:17:38;24.10;;;15.87;;
20857;SDS011;10589;53.636;10.012;2024-02-26T18:20:06;24.07;;;15.00;;
20857;SDS011;10589;53.636;10.012;2024-02-26T18:22:33;25.40;;;15.43;;
20857;SDS011;10589;53.636;10.012;2024-02-26T18:25:00;26.57;;;15.50;;
20857;SDS011;10589;53.636;10.012;2024-02-26T18:27:26;26.63;;;16.33;;
20857;SDS011;10589;53.636;10.012;2024-02-26T18:29:56;26.43;;;16.60;;
20857;SDS011;10589;53.636;10.012;2024-02-26T18:32:22;22.23;;;15.33;;
20857;SDS011;10589;53.636;10.012;2024-02-26T18:34:48;21.13;;;14.77;;
20857;SDS011;10589;53.636;10.012;2024-02-26T18:37:13;23.60;;;15.90;;
20857;SDS011;10589;53.636;10.012;2024-02-26T18:39:42;22.83;;;15.03;;
20857;SDS011;10589;53.636;10.012;2024-02-26T18:42:08;22.10;;;14.80;;
20857;SDS011;10589;53.636;10.012;2024-02-26T18:44:36;23.63;;;14.93;;
20857;SDS011;10589;53.636;10.012;2024-02-26T18:47:05;22.03;;;14.77;;
20857;SDS011;10589;53.636;10.012;2024-02-26T18:49:31;22.43;;;15.67;;
20857;SDS011;10589;53.636;10.012;2024-02-26T18:52:01;25.73;;;15.77;;
20857;SDS011;10589;53.636;10.012;2024-02-26T18:54:29;23.07;;;15.63;;
20857;SDS011;10589;53.636;10.012;2024-02-26T18:56:55;25.60;;;15.80;;
20857;SDS011;10589;53.636;10.012;2024-02-26T18:59:20;27.80;;;16.13;;